Time;durP1;ratioP1;P1;durP2;ratioP2;P2;SDS_P1;SDS_P2;PMS_P1;PMS_P2;Temp;Humidity;BMP_temperature;BMP_pressure;BME280_temperature;BME280_humidity;BME280_pressure;Samples;Min_cycle;Max_cycle;Signal;HPM_P1;HPM_P2
2023/06/13 00:01:49;;;;;;;5.50;3.50;;;;;;;11.36;60.25;100897.68;79145;276;3027191;-69
2023/06/13 00:04:25;;;;;;;4.90;3.00;;;;;;;11.33;60.11;100903.36;78988;277;3026960;-70
2023/06/13 00:07:01;;;;;;;6.20;3.30;;;;;;;11.31;60.13;100901.02;79150;277;3029510;-70
2023/06/13 00:09:37;;;;;;;4.50;3.70;;;;;;;11.31;60.12;100901.19;79122;277;3028288;-70
2023/06/13 00:12:13;;;;;;;5.30;3.20;;;;;;;11.31;60.14;100898.57;79897;277;3012506;-70
2023/06/13 00:14:50;;;;;;;5.30;2.60;;;;;;;11.29;60.11;100901.44;79119;277;3027665;-71
2023/06/13 00:17:25;;;;;;;4.90;2.60;;;;;;;11.26;60.24;100902.75;79135;277;3027564;-71
2023/06/13 00:20:01;;;;;;;4.00;2.70;;;;;;;11.21;60.55;100898.36;79121;277;3026942;-69
2023/06/13 00:22:37;;;;;;;4.70;2.90;;;;;;;11.17;60.59;100895.17;79087;277;3026704;-70
2023/06/13 00:25:14;;;;;;;4.90;2.90;;;;;;;11.16;60.66;100891.04;79882;276;3011423;-71
2023/06/13 00:27:49;;;;;;;2.30;1.90;;;;;;;11.13;61.22;100891.13;78983;278;3027862;-69
2023/06/13 00:30:25;;;;;;;2.70;2.10;;;;;;;11.11;61.55;100889.79;79141;277;3028376;-70
2023/06/13 00:33:00;;;;;;;2.70;1.90;;;;;;;11.09;61.70;100888.44;79101;277;3027653;-71
2023/06/13 00:35:37;;;;;;;3.20;2.00;;;;;;;11.08;61.72;100884.28;79870;277;3011651;-71
2023/06/13 00:38:13;;;;;;;5.00;1.90;;;;;;;11.08;61.81;100880.79;79066;277;3028450;-70
2023/06/13 00:40:49;;;;;;;2.50;1.70;;;;;;;11.07;62.03;100878.02;79852;277;3013229;-71
2023/06/13 00:43:27;;;;;;;3.10;1.40;;;;;;;11.07;62.06;100872.97;79120;277;3028753;-71
2023/06/13 00:46:02;;;;;;;2.30;1.90;;;;;;;11.05;62.29;100870.23;79101;277;3027638;-71
2023/06/13 00:48:40;;;;;;;2.10;1.70;;;;;;;11.01;62.89;100868.63;79896;277;3013222;-71
2023/06/13 00:51:16;;;;;;;1.80;1.70;;;;;;;10.98;62.88;100869.93;78992;277;3027496;-72
2023/06/13 00:53:52;;;;;;;2.20;1.70;;;;;;;10.98;63.18;100870.83;79126;277;3026699;-71
2023/06/13 00:56:28;;;;;;;4.60;2.00;;;;;;;10.97;63.61;100868.94;79105;277;3028093;-71
2023/06/13 00:59:04;;;;;;;3.80;1.90;;;;;;;10.97;63.86;100865.41;79078;277;3028529;-69
2023/06/13 01:01:40;;;;;;;3.00;2.20;;;;;;;10.99;64.10;100862.57;79011;277;3027047;-71
2023/06/13 01:04:19;;;;;;;2.90;2.50;;;;;;;11.02;64.15;100860.73;79109;277;3027902;-72
2023/06/13 01:06:54;;;;;;;3.30;2.50;;;;;;;11.05;64.49;100857.50;79098;277;3027508;-71
2023/06/13 01:09:30;;;;;;;3.30;2.50;;;;;;;11.03;64.39;100854.60;79118;277;3027688;-71
2023/06/13 01:12:13;;;;;;;3.10;2.30;;;;;;;11.01;65.11;100852.22;79117;277;3027331;-69
2023/06/13 01:14:53;;;;;;;2.40;2.20;;;;;;;11.00;64.95;100849.09;78975;277;3027480;-70
2023/06/13 01:17:33;;;;;;;3.60;2.60;;;;;;;11.04;65.05;100848.80;79105;277;3027303;-70
2023/06/13 01:20:13;;;;;;;3.30;2.40;;;;;;;11.08;65.12;100849.20;79086;277;3027687;-70
2023/06/13 01:22:54;;;;;;;4.60;2.70;;;;;;;11.10;65.27;100848.95;78971;277;3026801;-72
2023/06/13 01:25:57;;;;;;;5.60;3.10;;;;;;;11.10;65.47;100845.80;79001;277;3027756;-70
2023/06/13 01:28:33;;;;;;;5.80;2.80;;;;;;;11.08;65.53;100846.22;79153;277;3026982;-69
2023/06/13 01:31:15;;;;;;;4.30;2.50;;;;;;;11.12;65.70;100840.68;79115;277;3027968;-70
2023/06/13 01:33:49;;;;;;;;;;;;;;;11.15;65.94;100839.35;79142;277;3027485;-70
2023/06/13 01:36:23;;;;;;;4.10;2.90;;;;;;;11.13;65.83;100840.83;80390;277;3012429;-70
2023/06/13 01:38:58;;;;;;;3.90;2.80;;;;;;;11.18;65.91;100838.94;79128;277;3028295;-71
2023/06/13 01:41:34;;;;;;;4.40;2.90;;;;;;;11.18;65.88;100840.14;79143;277;3028505;-70
2023/06/13 01:44:10;;;;;;;4.20;2.80;;;;;;;11.19;65.98;100834.86;79096;277;3026781;-71
2023/06/13 01:46:52;;;;;;;3.30;2.60;;;;;;;11.19;65.87;100837.14;79129;277;3028639;-69
2023/06/13 01:49:32;;;;;;;4.40;3.20;;;;;;;11.22;66.19;100841.75;79069;277;3026876;-72
2023/06/13 01:52:16;;;;;;;4.50;2.60;;;;;;;11.22;66.35;100839.32;79084;277;3027930;-72
2023/06/13 01:54:53;;;;;;;4.50;3.10;;;;;;;11.21;66.35;100838.83;79093;277;3027051;-69
2023/06/13 01:57:36;;;;;;;3.50;2.70;;;;;;;11.23;66.45;100835.80;79118;277;3026999;-70
2023/06/13 02:00:15;;;;;;;4.40;3.00;;;;;;;11.24;66.36;100835.93;78988;277;3027532;-72
2023/06/13 02:02:51;;;;;;;3.70;3.00;;;;;;;11.25;66.59;100836.05;79101;277;3027101;-69
2023/06/13 02:05:30;;;;;;;4.60;3.00;;;;;;;11.24;66.56;100833.48;79883;277;3012805;-70
2023/06/13 02:08:06;;;;;;;3.40;3.00;;;;;;;11.28;66.60;100832.63;79080;277;3026919;-70
2023/06/13 02:10:42;;;;;;;4.10;3.40;;;;;;;11.31;66.95;100833.06;79078;277;3026751;-70
2023/06/13 02:13:18;;;;;;;6.50;4.00;;;;;;;11.32;67.13;100834.96;79087;277;3027861;-71
2023/06/13 02:15:54;;;;;;;5.70;3.30;;;;;;;11.34;67.33;100832.79;79143;277;3027317;-72
2023/06/13 02:18:30;;;;;;;7.50;4.60;;;;;;;11.32;67.39;100833.38;79106;277;3026950;-71
2023/06/13 02:21:06;;;;;;;6.80;4.10;;;;;;;11.34;67.46;100832.96;79141;277;3028009;-70
2023/06/13 02:23:41;;;;;;;8.10;3.90;;;;;;;11.37;67.62;100827.08;79082;277;3027624;-70
2023/06/13 02:26:19;;;;;;;6.30;4.10;;;;;;;11.38;67.70;100829.50;79129;277;3027565;-71
2023/06/13 02:28:56;;;;;;;4.60;3.20;;;;;;;11.37;67.79;100832.16;79116;277;3027823;-72
2023/06/13 02:31:38;;;;;;;3.70;3.00;;;;;;;11.35;68.14;100832.92;79132;277;3027639;-71
2023/06/13 02:34:13;;;;;;;4.80;3.70;;;;;;;11.35;68.19;100835.38;79121;277;3027157;-70
2023/06/13 02:36:49;;;;;;;6.40;4.00;;;;;;;11.36;68.55;100832.20;79129;277;3027764;-70
2023/06/13 02:39:26;;;;;;;6.30;3.80;;;;;;;11.37;68.63;100828.86;79103;277;3027671;-70
2023/06/13 02:42:01;;;;;;;3.80;3.10;;;;;;;11.36;68.76;100826.08;79117;277;3028410;-72
2023/06/13 02:44:37;;;;;;;5.80;3.90;;;;;;;11.35;68.66;100831.35;79147;277;3026998;-70
2023/06/13 02:47:12;;;;;;;5.60;3.80;;;;;;;11.33;68.66;100830.73;79114;277;3027273;-72
2023/06/13 02:49:48;;;;;;;5.50;3.30;;;;;;;11.36;68.64;100831.64;79123;277;3027299;-72
2023/06/13 02:52:24;;;;;;;3.20;2.90;;;;;;;11.40;68.77;100825.27;79853;277;3011494;-71
2023/06/13 02:55:00;;;;;;;4.40;3.10;;;;;;;11.41;68.74;100824.71;79098;277;3027946;-71
2023/06/13 02:57:38;;;;;;;3.90;2.90;;;;;;;11.40;69.05;100819.85;79119;276;3027462;-71
2023/06/13 03:00:16;;;;;;;3.50;3.20;;;;;;;11.36;68.84;100824.16;79147;277;3027565;-72
2023/06/13 03:02:52;;;;;;;5.70;3.00;;;;;;;11.32;68.84;100821.70;79086;277;3026612;-70
2023/06/13 03:05:27;;;;;;;4.50;2.70;;;;;;;11.32;69.27;100824.80;79136;277;3027058;-70
2023/06/13 03:08:04;;;;;;;3.00;2.60;;;;;;;11.34;69.26;100825.66;78968;277;3026441;-70
2023/06/13 03:10:39;;;;;;;3.40;2.80;;;;;;;11.36;69.29;100825.37;79119;277;3027409;-70
2023/06/13 03:13:17;;;;;;;4.20;3.30;;;;;;;11.41;69.30;100823.32;79845;277;3011248;-72
2023/06/13 03:15:56;;;;;;;7.30;4.30;;;;;;;11.43;69.41;100820.95;79108;276;3027732;-70
2023/06/13 03:18:32;;;;;;;6.10;3.80;;;;;;;11.44;69.46;100824.94;79092;276;3027215;-68
2023/06/13 03:21:08;;;;;;;5.70;3.50;;;;;;;11.46;69.39;100824.36;78604;277;3743779;-70
2023/06/13 03:23:43;;;;;;;7.30;3.90;;;;;;;11.49;69.53;100825.33;78963;277;3027356;-70
2023/06/13 03:26:19;;;;;;;7.70;3.90;;;;;;;11.51;69.68;100823.66;79882;276;3013198;-72
2023/06/13 03:28:56;;;;;;;5.30;3.90;;;;;;;11.51;69.99;100818.93;79816;277;3011708;-71
2023/06/13 03:31:32;;;;;;;5.80;3.60;;;;;;;11.47;69.92;100821.69;79118;277;3027199;-70
2023/06/13 03:34:08;;;;;;;6.40;4.00;;;;;;;11.47;69.97;100822.38;79129;277;3028860;-71
2023/06/13 03:36:44;;;;;;;4.70;2.90;;;;;;;11.50;70.48;100820.89;78973;278;3028519;-72
2023/06/13 03:39:19;;;;;;;3.70;3.30;;;;;;;11.48;70.60;100822.90;78995;277;3027299;-70
2023/06/13 03:41:55;;;;;;;5.10;3.60;;;;;;;11.45;70.72;100819.69;79024;277;3026928;-70
2023/06/13 03:44:31;;;;;;;5.60;3.90;;;;;;;11.46;70.72;100817.19;78993;277;3027989;-72
2023/06/13 03:47:08;;;;;;;4.80;3.70;;;;;;;11.48;70.95;100818.88;78968;277;3027281;-70
2023/06/13 03:49:43;;;;;;;5.60;3.80;;;;;;;11.48;71.01;100816.23;78958;278;3027222;-70
2023/06/13 03:52:19;;;;;;;4.80;3.80;;;;;;;11.51;71.09;100818.41;78999;277;3027329;-70
2023/06/13 03:54:54;;;;;;;7.00;3.60;;;;;;;11.56;71.29;100817.88;79016;277;3027726;-70
2023/06/13 03:57:31;;;;;;;6.30;4.10;;;;;;;11.59;71.59;100817.79;78998;277;3027691;-72
2023/06/13 04:00:11;;;;;;;5.60;4.20;;;;;;;11.58;71.43;100814.67;79001;277;3027954;-70
2023/06/13 04:02:46;;;;;;;5.10;4.60;;;;;;;11.60;71.69;100815.45;78950;278;3029045;-71
2023/06/13 04:05:23;;;;;;;6.90;4.60;;;;;;;11.60;71.80;100812.83;79726;277;3011245;-71
2023/06/13 04:07:59;;;;;;;6.40;4.70;;;;;;;11.63;72.04;100811.70;78996;277;3027287;-71
2023/06/13 04:10:34;;;;;;;6.00;4.50;;;;;;;11.67;72.43;100809.31;78979;277;3027772;-69
2023/06/13 04:13:10;;;;;;;8.20;4.50;;;;;;;11.69;72.42;100808.34;79724;277;3011504;-71
2023/06/13 04:15:47;;;;;;;6.90;4.90;;;;;;;11.71;72.41;100809.46;79730;277;3011458;-71
2023/06/13 04:18:23;;;;;;;6.90;4.20;;;;;;;11.75;72.56;100803.59;78989;277;3027546;-70
2023/06/13 04:20:59;;;;;;;4.60;3.70;;;;;;;11.75;72.42;100804.81;79010;278;3026743;-71
2023/06/13 04:23:34;;;;;;;5.70;4.20;;;;;;;11.74;72.45;100804.14;78964;278;3027521;-71
2023/06/13 04:26:11;;;;;;;7.20;3.80;;;;;;;11.76;72.59;100802.48;79022;277;3027707;-70
2023/06/13 04:28:47;;;;;;;4.00;3.50;;;;;;;11.80;72.54;100800.06;78946;279;3029268;-70
2023/06/13 04:31:24;;;;;;;6.00;3.70;;;;;;;11.84;72.57;100800.65;79024;278;3027959;-68
2023/06/13 04:34:03;;;;;;;5.80;4.50;;;;;;;11.86;72.50;100804.25;79066;277;3030749;-68
2023/06/13 04:36:41;;;;;;;4.30;3.90;;;;;;;11.84;72.35;100803.63;78956;277;3028476;-70
2023/06/13 04:39:17;;;;;;;5.40;4.00;;;;;;;11.83;72.38;100804.20;78940;277;3027722;-70
2023/06/13 04:41:55;;;;;;;5.10;4.50;;;;;;;11.83;72.46;100802.79;78931;277;3026797;-70
2023/06/13 04:44:33;;;;;;;5.30;4.40;;;;;;;11.85;72.30;100798.01;78955;277;3028000;-70
2023/06/13 04:47:14;;;;;;;5.70;4.90;;;;;;;11.84;72.62;100799.42;78947;278;3027216;-70
2023/06/13 04:49:51;;;;;;;7.20;5.50;;;;;;;11.81;72.49;100801.09;78940;277;3027427;-71
2023/06/13 04:52:29;;;;;;;5.60;4.90;;;;;;;11.79;73.01;100801.88;78965;278;3027550;-70
2023/06/13 04:55:06;;;;;;;4.50;4.10;;;;;;;11.77;72.83;100804.72;78965;278;3027302;-69
2023/06/13 04:57:41;;;;;;;5.40;4.20;;;;;;;11.80;72.93;100807.77;78940;278;3027281;-72
2023/06/13 05:00:19;;;;;;;5.30;4.20;;;;;;;11.79;73.11;100808.67;78976;278;3028899;-70
2023/06/13 05:02:55;;;;;;;5.30;4.20;;;;;;;11.79;73.23;100810.94;79008;278;3027428;-71
2023/06/13 05:05:31;;;;;;;9.60;5.40;;;;;;;11.77;73.44;100812.26;79029;278;3027030;-69
2023/06/13 05:08:09;;;;;;;5.70;5.10;;;;;;;11.76;73.72;100805.30;78968;278;3027484;-72
2023/06/13 05:10:46;;;;;;;6.30;4.40;;;;;;;11.79;74.03;100806.60;79007;278;3027952;-70
2023/06/13 05:13:21;;;;;;;8.00;4.20;;;;;;;11.78;74.10;100805.92;78987;278;3027361;-70
2023/06/13 05:15:58;;;;;;;6.00;4.10;;;;;;;11.81;73.94;100805.46;79720;278;3011589;-71
2023/06/13 05:18:34;;;;;;;5.20;4.70;;;;;;;11.86;74.21;100808.77;79726;278;3011516;-70
2023/06/13 05:21:16;;;;;;;6.50;4.80;;;;;;;11.88;74.08;100806.98;79016;278;3027309;-71
2023/06/13 05:23:51;;;;;;;5.10;4.50;;;;;;;11.85;74.48;100806.73;78994;278;3027307;-70
2023/06/13 05:26:27;;;;;;;4.90;4.20;;;;;;;11.80;74.44;100809.72;78970;278;3027396;-70
2023/06/13 05:29:06;;;;;;;4.70;3.90;;;;;;;11.79;74.36;100809.19;78943;278;3028375;-70
2023/06/13 05:31:42;;;;;;;5.00;4.40;;;;;;;11.82;74.42;100812.80;78960;278;3027136;-72
2023/06/13 05:34:18;;;;;;;5.40;4.50;;;;;;;11.86;74.66;100808.45;78981;278;3029047;-71
2023/06/13 05:36:55;;;;;;;6.70;6.00;;;;;;;11.89;74.70;100803.27;78964;278;3027356;-70
2023/06/13 05:39:31;;;;;;;6.60;5.90;;;;;;;11.89;74.78;100799.63;78995;278;3028078;-70
2023/06/13 05:42:07;;;;;;;6.60;4.90;;;;;;;11.89;74.74;100800.67;79003;278;3026798;-70
2023/06/13 05:44:43;;;;;;;7.10;4.20;;;;;;;11.86;74.78;100802.36;78989;278;3027001;-69
2023/06/13 05:47:19;;;;;;;4.60;4.00;;;;;;;11.86;74.85;100808.45;79029;278;3027275;-70
2023/06/13 05:49:56;;;;;;;6.80;4.60;;;;;;;11.91;74.92;100807.58;79041;278;3028151;-70
2023/06/13 05:52:36;;;;;;;13.40;8.00;;;;;;;11.98;74.92;100799.30;78999;278;3027596;-71
2023/06/13 05:55:14;;;;;;;15.60;7.50;;;;;;;11.96;74.98;100803.39;79064;277;3027181;-70
2023/06/13 05:57:50;;;;;;;11.40;6.50;;;;;;;11.93;74.96;100804.89;79061;278;3027718;-71
2023/06/13 06:00:26;;;;;;;10.20;5.50;;;;;;;11.97;75.08;100805.27;79076;278;3027245;-71
2023/06/13 06:03:04;;;;;;;6.00;4.50;;;;;;;12.04;75.23;100807.12;79052;277;3027058;-71
2023/06/13 06:05:41;;;;;;;6.60;4.90;;;;;;;12.07;75.29;100804.90;79047;277;3027383;-70
2023/06/13 06:08:19;;;;;;;7.10;5.70;;;;;;;12.10;75.07;100806.34;79020;278;3028200;-70
2023/06/13 06:10:54;;;;;;;7.60;5.70;;;;;;;12.09;75.15;100802.71;79070;278;3027778;-70
2023/06/13 06:13:29;;;;;;;11.10;6.90;;;;;;;12.09;75.42;100802.52;79015;278;3027955;-70
2023/06/13 06:16:06;;;;;;;10.60;6.60;;;;;;;12.06;75.27;100799.52;79774;277;3011431;-71
2023/06/13 06:18:42;;;;;;;7.70;6.10;;;;;;;12.05;75.30;100797.09;78990;278;3027674;-72
2023/06/13 06:21:18;;;;;;;9.00;5.80;;;;;;;12.10;75.56;100801.48;79058;277;3026758;-72
2023/06/13 06:23:53;;;;;;;7.20;5.60;;;;;;;12.12;75.63;100804.17;79024;277;3028326;-71
2023/06/13 06:26:29;;;;;;;8.30;5.50;;;;;;;12.16;75.77;100801.92;79036;277;3027609;-71
2023/06/13 06:29:05;;;;;;;9.60;5.10;;;;;;;12.18;75.59;100806.92;79658;271;3011583;-70
2023/06/13 06:31:42;;;;;;;10.10;5.20;;;;;;;12.20;75.55;100800.73;79783;278;3011548;-71
2023/06/13 06:34:17;;;;;;;8.40;5.20;;;;;;;12.26;75.69;100801.73;79035;278;3027352;-72
2023/06/13 06:36:53;;;;;;;19.30;7.10;;;;;;;12.31;75.70;100802.92;79819;278;3011542;-73
2023/06/13 06:39:29;;;;;;;17.50;9.20;;;;;;;12.38;75.71;100799.34;79806;277;3011417;-73
2023/06/13 06:42:06;;;;;;;13.00;7.40;;;;;;;12.44;75.51;100799.11;79816;277;3011516;-72
2023/06/13 06:44:41;;;;;;;12.00;6.70;;;;;;;12.48;75.25;100796.86;79037;277;3027328;-72
2023/06/13 06:47:18;;;;;;;11.50;6.00;;;;;;;12.50;75.16;100796.09;79788;277;3011480;-72
2023/06/13 06:49:54;;;;;;;11.50;5.70;;;;;;;12.47;75.09;100794.64;79064;277;3027200;-73
2023/06/13 06:52:30;;;;;;;7.20;5.50;;;;;;;12.47;75.09;100800.73;79037;277;3027539;-71
2023/06/13 06:55:07;;;;;;;9.60;5.30;;;;;;;12.54;75.08;100801.16;79006;277;3026567;-72
2023/06/13 06:57:43;;;;;;;9.00;6.10;;;;;;;12.53;74.72;100795.77;79022;277;3028264;-71
2023/06/13 07:00:21;;;;;;;10.30;6.10;;;;;;;12.53;75.05;100799.09;79071;278;3027379;-72
2023/06/13 07:02:56;;;;;;;10.70;6.40;;;;;;;12.54;74.89;100797.66;78946;279;3027098;-69
2023/06/13 07:05:33;;;;;;;9.30;6.40;;;;;;;12.56;74.76;100798.65;79034;278;3026858;-72
2023/06/13 07:08:12;;;;;;;13.90;6.20;;;;;;;12.57;74.72;100795.81;79030;277;3028186;-72
2023/06/13 07:10:55;;;;;;;6.90;6.00;;;;;;;12.62;75.22;100794.39;79020;277;3027005;-72
2023/06/13 07:13:34;;;;;;;6.30;5.70;;;;;;;12.64;74.98;100793.56;78992;277;3027274;-71
2023/06/13 07:16:11;;;;;;;6.70;5.90;;;;;;;12.69;74.56;100794.81;79065;277;3027853;-71
2023/06/13 07:18:46;;;;;;;7.30;6.00;;;;;;;12.68;74.71;100795.73;79047;277;3026914;-72
2023/06/13 07:21:22;;;;;;;6.20;5.40;;;;;;;12.69;74.70;100796.36;79091;277;3027447;-74
2023/06/13 07:23:57;;;;;;;7.00;5.30;;;;;;;12.74;74.45;100800.38;78991;277;3027189;-72
2023/06/13 07:26:34;;;;;;;7.50;5.80;;;;;;;12.75;74.42;100798.23;79797;277;3011578;-71
2023/06/13 07:29:09;;;;;;;6.30;5.70;;;;;;;12.80;74.64;100799.44;79038;277;3027271;-72
2023/06/13 07:31:45;;;;;;;5.90;5.30;;;;;;;12.81;74.41;100802.55;79781;266;3011144;-72
2023/06/13 07:34:21;;;;;;;7.00;5.70;;;;;;;12.81;74.40;100803.43;79038;278;3026937;-72
2023/06/13 07:36:57;;;;;;;5.50;4.90;;;;;;;12.80;73.91;100794.36;79018;277;3026987;-70
2023/06/13 07:39:33;;;;;;;6.20;4.90;;;;;;;12.77;73.88;100792.00;79038;277;3027271;-72
2023/06/13 07:42:10;;;;;;;5.90;5.20;;;;;;;12.82;74.27;100787.27;78944;277;3027302;-73
2023/06/13 07:44:45;;;;;;;7.50;5.80;;;;;;;12.87;74.10;100784.98;78943;277;3026748;-73
2023/06/13 07:47:21;;;;;;;6.00;5.40;;;;;;;12.88;74.29;100784.56;78999;266;3027177;-73
2023/06/13 07:49:57;;;;;;;5.40;4.90;;;;;;;12.89;73.87;100783.81;79005;277;3027150;-72
2023/06/13 07:52:32;;;;;;;6.70;5.80;;;;;;;12.96;74.24;100783.58;78964;277;3027373;-72
2023/06/13 07:55:10;;;;;;;5.50;4.90;;;;;;;13.01;74.15;100783.72;79016;277;3028412;-70
2023/06/13 07:57:46;;;;;;;7.00;5.30;;;;;;;13.03;73.88;100787.31;78974;277;3028190;-71
2023/06/13 08:00:26;;;;;;;6.20;5.60;;;;;;;13.03;73.58;100786.57;78992;271;3027545;-71
2023/06/13 08:03:03;;;;;;;7.30;5.00;;;;;;;13.06;73.87;100791.02;79018;277;3027271;-72
2023/06/13 08:05:39;;;;;;;7.90;4.70;;;;;;;13.10;73.87;100784.01;78998;277;3027910;-72
2023/06/13 08:08:18;;;;;;;5.50;4.90;;;;;;;13.14;74.06;100782.77;79010;278;3027983;-72
2023/06/13 08:10:53;;;;;;;6.90;5.00;;;;;;;13.21;74.20;100783.93;78986;277;3027204;-72
2023/06/13 08:13:28;;;;;;;5.60;4.90;;;;;;;13.28;74.23;100778.20;78978;277;3027378;-72
2023/06/13 08:16:04;;;;;;;6.00;4.50;;;;;;;13.34;74.05;100776.38;79031;277;3028429;-71
2023/06/13 08:18:40;;;;;;;5.70;4.40;;;;;;;13.39;73.86;100773.52;79038;277;3027893;-72
2023/06/13 08:21:15;;;;;;;5.50;4.50;;;;;;;13.43;73.88;100774.20;79030;277;3027678;-71
2023/06/13 08:23:51;;;;;;;6.00;4.10;;;;;;;13.50;74.13;100775.89;78960;277;3027706;-73
2023/06/13 08:26:32;;;;;;;10.00;4.90;;;;;;;13.56;74.25;100775.41;79032;277;3028103;-70
2023/06/13 08:29:12;;;;;;;6.00;4.80;;;;;;;13.64;74.39;100775.75;78998;278;3026709;-70
2023/06/13 08:31:48;;;;;;;5.00;4.50;;;;;;;13.73;74.04;100775.17;79095;277;3027752;-72
2023/06/13 08:34:24;;;;;;;5.70;4.40;;;;;;;13.77;73.70;100771.33;79014;277;3027835;-71
2023/06/13 08:37:01;;;;;;;5.60;4.60;;;;;;;13.88;73.95;100769.42;79089;277;3026779;-73
2023/06/13 08:39:36;;;;;;;5.30;4.20;;;;;;;14.03;73.54;100767.52;79048;278;3027355;-71
2023/06/13 08:42:12;;;;;;;5.10;4.10;;;;;;;14.12;73.00;100769.00;79119;277;3027623;-70
2023/06/13 08:44:48;;;;;;;4.60;4.10;;;;;;;14.21;72.29;100772.63;79071;277;3028352;-72
2023/06/13 08:47:24;;;;;;;4.10;3.80;;;;;;;14.22;71.85;100771.71;79046;277;3026853;-72
2023/06/13 08:50:04;;;;;;;5.10;4.10;;;;;;;14.21;71.36;100768.79;79028;278;3027205;-73
2023/06/13 08:52:42;;;;;;;5.80;4.80;;;;;;;14.20;71.26;100767.95;78968;278;3027218;-71
2023/06/13 08:55:22;;;;;;;5.00;4.50;;;;;;;14.22;71.20;100768.23;79014;274;3028107;-72
2023/06/13 08:58:02;;;;;;;4.70;4.20;;;;;;;14.24;71.26;100771.09;78983;278;3027092;-71
2023/06/13 09:00:40;;;;;;;5.00;4.50;;;;;;;14.31;71.17;100767.59;79052;278;3027725;-73
2023/06/13 09:03:20;;;;;;;5.10;4.60;;;;;;;14.43;71.19;100766.86;78981;278;3028414;-73
2023/06/13 09:05:59;;;;;;;5.20;4.40;;;;;;;14.54;70.98;100765.85;79007;278;3027967;-72
2023/06/13 09:08:35;;;;;;;7.20;5.10;;;;;;;14.65;70.93;100766.88;79012;278;3028360;-71
2023/06/13 09:11:11;;;;;;;5.40;4.90;;;;;;;14.75;70.82;100766.23;78952;278;3027841;-72
2023/06/13 09:13:48;;;;;;;5.20;4.50;;;;;;;14.80;70.25;100774.23;79732;278;3013169;-70
2023/06/13 09:16:25;;;;;;;6.60;4.80;;;;;;;14.86;69.60;100777.82;78971;278;3027498;-72
2023/06/13 09:19:02;;;;;;;5.00;4.60;;;;;;;14.79;69.10;100775.17;79018;278;3027407;-72
2023/06/13 09:21:40;;;;;;;5.80;5.30;;;;;;;14.71;68.92;100776.95;79765;278;3011513;-72
2023/06/13 09:24:16;;;;;;;7.90;5.40;;;;;;;14.58;69.06;100779.70;79018;278;3027644;-71
2023/06/13 09:26:52;;;;;;;7.10;5.60;;;;;;;14.52;69.36;100775.59;79076;277;3027550;-72
2023/06/13 09:29:36;;;;;;;8.90;5.80;;;;;;;14.51;69.56;100776.17;78994;277;3026994;-72
2023/06/13 09:32:13;;;;;;;6.10;5.30;;;;;;;14.53;69.60;100775.02;79014;277;3027322;-73
2023/06/13 09:34:50;;;;;;;5.10;4.60;;;;;;;14.53;69.61;100777.65;79033;277;3028464;-72
2023/06/13 09:37:26;;;;;;;6.00;5.40;;;;;;;14.50;69.44;100780.98;79037;277;3026700;-73
2023/06/13 09:40:09;;;;;;;6.00;5.40;;;;;;;14.49;69.48;100781.91;79023;277;3028177;-72
2023/06/13 09:42:45;;;;;;;6.40;5.30;;;;;;;14.50;69.73;100779.56;79029;277;3027300;-72
2023/06/13 09:45:21;;;;;;;6.30;5.30;;;;;;;14.50;69.77;100779.03;79027;277;3027122;-72
2023/06/13 09:47:57;;;;;;;7.00;5.70;;;;;;;14.50;70.02;100780.13;79018;266;3027410;-72
2023/06/13 09:50:36;;;;;;;7.20;5.30;;;;;;;14.48;69.98;100784.89;79115;277;3027311;-72
2023/06/13 09:53:11;;;;;;;6.50;5.90;;;;;;;14.45;70.03;100784.85;79079;277;3027723;-71
2023/06/13 09:55:47;;;;;;;7.80;5.90;;;;;;;14.45;70.27;100782.40;79104;277;3026925;-72
2023/06/13 09:58:23;;;;;;;6.80;6.20;;;;;;;14.44;70.19;100781.74;79010;277;3026808;-70
2023/06/13 10:01:03;;;;;;;10.20;6.70;;;;;;;14.46;70.39;100780.94;79033;277;3028032;-72
2023/06/13 10:03:43;;;;;;;8.90;6.60;;;;;;;14.49;70.40;100785.08;79013;277;3028371;-72
2023/06/13 10:06:19;;;;;;;7.70;6.50;;;;;;;14.56;70.62;100781.55;79092;277;3026802;-72
2023/06/13 10:08:55;;;;;;;7.80;6.80;;;;;;;14.59;70.47;100782.61;79020;277;3027625;-72
2023/06/13 10:11:34;;;;;;;7.90;7.10;;;;;;;14.60;70.34;100779.95;79017;277;3027139;-72
2023/06/13 10:14:13;;;;;;;7.70;5.90;;;;;;;14.63;70.31;100781.38;79036;278;3027341;-72
2023/06/13 10:16:52;;;;;;;7.80;6.50;;;;;;;14.66;70.19;100776.86;79044;278;3027204;-71
2023/06/13 10:19:28;;;;;;;6.80;6.10;;;;;;;14.68;70.26;100775.15;79017;277;3027771;-72
2023/06/13 10:22:06;;;;;;;7.00;6.30;;;;;;;14.74;70.29;100774.23;79805;278;3011546;-72
2023/06/13 10:24:41;;;;;;;11.00;6.50;;;;;;;14.80;70.29;100769.68;79023;278;3027000;-71
2023/06/13 10:27:18;;;;;;;7.70;6.90;;;;;;;14.91;70.51;100764.73;79762;277;3011296;-73
2023/06/13 10:30:38;;;;;;;8.10;7.20;;;;;;;15.07;70.51;100763.07;78973;277;3027267;-70
2023/06/13 10:33:52;;;;;;;8.40;7.60;;;;;;;15.30;70.06;100759.61;78904;277;3028749;-71
2023/06/13 10:36:36;;;;;;;7.90;7.10;;;;;;;15.43;69.57;100758.20;79030;278;3028178;-71
2023/06/13 10:39:45;;;;;;;8.90;7.40;;;;;;;15.59;69.38;100752.49;79028;277;3027971;-72
2023/06/13 10:42:27;;;;;;;6.70;6.00;;;;;;;15.80;69.07;100749.64;78985;279;3027940;-72
2023/06/13 10:45:12;;;;;;;6.70;6.10;;;;;;;16.07;68.73;100750.99;79014;277;3027034;-72
2023/06/13 10:47:52;;;;;;;7.10;6.50;;;;;;;16.23;68.20;100749.58;78937;279;3027124;-70
2023/06/13 10:50:28;;;;;;;8.90;7.00;;;;;;;16.31;67.57;100748.62;79110;277;3026621;-72
2023/06/13 10:53:03;;;;;;;8.10;6.80;;;;;;;16.33;66.76;100750.41;79056;278;3026907;-72
2023/06/13 10:55:46;;;;;;;6.90;6.20;;;;;;;16.44;66.75;100747.50;79040;277;3027023;-71
2023/06/13 10:58:23;;;;;;;6.70;6.20;;;;;;;16.61;66.29;100740.52;79020;277;3027242;-72
2023/06/13 11:01:00;;;;;;;7.00;6.20;;;;;;;16.71;65.65;100743.67;79755;277;3011431;-71
2023/06/13 11:03:35;;;;;;;6.40;5.70;;;;;;;16.79;65.40;100746.76;79004;277;3026708;-71
2023/06/13 11:06:14;;;;;;;5.90;5.50;;;;;;;16.76;64.71;100749.96;79024;277;3027875;-71
2023/06/13 11:08:50;;;;;;;6.30;5.70;;;;;;;16.66;64.34;100751.19;78984;277;3027057;-70
2023/06/13 11:11:32;;;;;;;7.30;5.90;;;;;;;16.57;64.68;100750.44;79010;277;3027631;-71
2023/06/13 11:14:07;;;;;;;6.80;5.60;;;;;;;16.55;64.65;100744.76;79019;277;3026797;-71
2023/06/13 11:16:45;;;;;;;5.90;5.40;;;;;;;16.47;64.63;100742.20;78999;277;3027646;-72
2023/06/13 11:19:22;;;;;;;9.70;6.60;;;;;;;16.48;65.02;100740.95;78988;277;3028818;-72
2023/06/13 11:22:14;;;;;;;9.60;6.90;;;;;;;16.50;64.92;100738.36;78512;277;3028048;-71
2023/06/13 11:24:49;;;;;;;9.20;7.10;;;;;;;16.57;64.84;100737.08;78965;277;3027104;-71
2023/06/13 11:27:26;;;;;;;6.90;6.30;;;;;;;16.69;64.75;100739.23;79059;277;3027097;-70
2023/06/13 11:30:03;;;;;;;6.20;5.60;;;;;;;16.89;64.81;100742.10;79052;277;3027757;-69
2023/06/13 11:32:42;;;;;;;5.80;5.30;;;;;;;17.14;64.25;100732.21;79025;277;3027797;-70
2023/06/13 11:35:18;;;;;;;7.20;6.00;;;;;;;17.36;63.69;100738.50;79045;277;3027943;-71
2023/06/13 11:37:56;;;;;;;6.40;5.90;;;;;;;17.57;63.43;100742.14;79000;277;3027953;-69
2023/06/13 11:40:39;;;;;;;6.70;6.10;;;;;;;17.79;62.94;100737.80;79052;277;3028577;-71
2023/06/13 11:43:18;;;;;;;6.90;6.30;;;;;;;17.96;62.24;100734.45;79012;277;3027327;-71
2023/06/13 11:46:00;;;;;;;7.30;6.70;;;;;;;17.97;61.32;100737.19;78984;277;3027358;-70
2023/06/13 11:48:37;;;;;;;7.50;6.80;;;;;;;17.84;60.69;100738.04;79002;277;3028330;-71
2023/06/13 11:51:17;;;;;;;7.60;6.90;;;;;;;17.68;60.69;100739.16;78993;277;3027363;-71
2023/06/13 11:53:56;;;;;;;7.60;6.90;;;;;;;17.50;60.80;100743.23;78996;277;3027000;-71
2023/06/13 11:56:34;;;;;;;8.00;6.60;;;;;;;17.37;61.25;100746.67;78943;278;3026812;-69
2023/06/13 11:59:20;;;;;;;8.20;6.80;;;;;;;17.36;61.56;100749.61;79048;277;3027921;-71
2023/06/13 12:01:58;;;;;;;7.60;6.80;;;;;;;17.39;61.79;100744.09;79025;277;3027669;-71
2023/06/13 12:04:34;;;;;;;6.30;5.70;;;;;;;17.47;61.45;100739.17;79016;277;3026653;-72